createdAt,value
2023-09-26T00:01:56.153Z,18.37
2023-09-26T00:04:22.859Z,18.24
2023-09-26T00:06:49.578Z,18.09
2023-09-26T00:09:16.200Z,18.20
2023-09-26T00:11:42.756Z,18.20
2023-09-26T00:14:09.368Z,18.15
2023-09-26T00:16:36.112Z,18.12
2023-09-26T00:19:02.799Z,18.13
2023-09-26T00:21:29.426Z,18.09
2023-09-26T00:23:56.104Z,18.04
2023-09-26T00:26:22.709Z,17.98
2023-09-26T00:28:49.271Z,18.01
2023-09-26T00:31:15.938Z,17.94
2023-09-26T00:33:42.611Z,17.95
2023-09-26T00:36:10.268Z,17.98
2023-09-26T00:38:37.251Z,17.97
2023-09-26T00:41:04.105Z,17.93
2023-09-26T00:43:31.858Z,17.99
2023-09-26T00:46:01.364Z,17.93
2023-09-26T00:48:28.673Z,17.99
2023-09-26T00:50:56.691Z,17.98
2023-09-26T00:53:26.026Z,17.87
2023-09-26T00:55:55.624Z,17.90
2023-09-26T00:58:26.676Z,17.84
2023-09-26T01:00:54.053Z,17.85
2023-09-26T01:03:21.976Z,17.80
2023-09-26T01:08:30.963Z,17.79
2023-09-26T01:11:00.576Z,17.72
2023-09-26T01:13:27.223Z,17.66
2023-09-26T01:15:53.896Z,17.71
2023-09-26T01:18:20.773Z,17.73
2023-09-26T01:20:47.500Z,17.71
2023-09-26T01:23:16.228Z,17.59
2023-09-26T01:25:44.112Z,17.64
2023-09-26T01:28:14.846Z,17.68
2023-09-26T01:30:41.666Z,17.72
2023-09-26T01:33:09.840Z,17.73
2023-09-26T01:35:36.539Z,17.71
2023-09-26T01:38:03.210Z,17.63
2023-09-26T01:40:29.797Z,17.71
2023-09-26T01:42:56.549Z,17.78
2023-09-26T01:45:23.231Z,17.71
2023-09-26T01:47:51.625Z,17.72
2023-09-26T01:50:20.201Z,17.63
2023-09-26T01:52:47.628Z,17.57
2023-09-26T01:55:18.482Z,17.41
2023-09-26T01:57:45.725Z,17.29
2023-09-26T02:00:13.466Z,17.38
2023-09-26T02:02:46.004Z,17.48
2023-09-26T02:05:21.345Z,17.49
2023-09-26T02:07:48.985Z,17.52
2023-09-26T02:10:16.918Z,17.45
2023-09-26T02:12:46.892Z,17.37
2023-09-26T02:15:14.187Z,17.38
2023-09-26T02:17:42.010Z,17.45
2023-09-26T02:20:15.162Z,17.48
2023-09-26T02:22:50.328Z,17.40
2023-09-26T02:25:18.136Z,17.37
2023-09-26T02:27:44.848Z,17.41
2023-09-26T02:30:14.069Z,17.32
2023-09-26T02:32:40.955Z,17.34
2023-09-26T02:35:09.784Z,17.32
2023-09-26T02:37:36.988Z,17.35
2023-09-26T02:40:04.557Z,17.35
2023-09-26T02:42:31.090Z,17.31
2023-09-26T02:44:57.637Z,17.31
2023-09-26T02:47:24.167Z,17.41
2023-09-26T02:49:50.702Z,17.37
2023-09-26T02:52:17.342Z,17.32
2023-09-26T02:54:43.949Z,17.22
2023-09-26T02:57:10.556Z,17.14
2023-09-26T02:59:37.238Z,17.01
2023-09-26T03:02:03.943Z,16.98
2023-09-26T03:04:30.638Z,16.81
2023-09-26T03:06:57.313Z,16.88
2023-09-26T03:09:23.984Z,16.90
2023-09-26T03:11:50.548Z,16.85
2023-09-26T03:14:19.431Z,16.91
2023-09-26T03:16:46.386Z,16.72
2023-09-26T03:19:13.315Z,16.88
2023-09-26T03:21:39.965Z,16.85
2023-09-26T03:24:07.014Z,16.86
2023-09-26T03:26:33.576Z,16.86
2023-09-26T03:29:00.205Z,16.92
2023-09-26T03:31:27.005Z,16.92
2023-09-26T03:33:53.789Z,16.81
2023-09-26T03:36:21.695Z,16.79
2023-09-26T03:38:48.321Z,16.72
2023-09-26T03:41:14.962Z,16.78
2023-09-26T03:43:41.509Z,16.77
2023-09-26T03:46:09.580Z,16.84
2023-09-26T03:48:36.810Z,16.77
2023-09-26T03:51:14.488Z,16.76
2023-09-26T03:53:42.574Z,16.73
2023-09-26T03:56:09.610Z,16.87
2023-09-26T03:58:37.233Z,16.91
2023-09-26T04:01:12.499Z,16.83
2023-09-26T04:03:40.878Z,16.78
2023-09-26T04:06:07.737Z,16.75
2023-09-26T04:08:34.476Z,16.73
2023-09-26T04:11:01.128Z,16.55
2023-09-26T04:13:27.968Z,16.56
2023-09-26T04:15:56.270Z,16.60
2023-09-26T04:18:24.096Z,16.68
2023-09-26T04:20:51.424Z,16.73
2023-09-26T04:23:18.072Z,16.65
2023-09-26T04:25:45.156Z,16.70
2023-09-26T04:28:11.902Z,16.78
2023-09-26T04:30:40.137Z,16.74
2023-09-26T04:33:08.517Z,16.69
2023-09-26T04:35:36.244Z,16.76
2023-09-26T04:38:04.589Z,16.58
2023-09-26T04:40:31.708Z,16.60
2023-09-26T04:43:03.746Z,16.61
2023-09-26T04:45:31.843Z,16.61
2023-09-26T04:47:59.725Z,16.56
2023-09-26T04:50:27.718Z,16.60
2023-09-26T04:52:54.401Z,16.58
2023-09-26T04:55:20.980Z,16.56
2023-09-26T04:57:47.754Z,16.57
2023-09-26T05:00:14.775Z,16.44
2023-09-26T05:02:41.391Z,16.48
2023-09-26T05:05:08.320Z,16.52
2023-09-26T05:07:34.988Z,16.48
2023-09-26T05:10:01.838Z,16.52
2023-09-26T05:12:29.719Z,16.43
2023-09-26T05:14:56.889Z,16.49
2023-09-26T05:17:23.906Z,16.52
2023-09-26T05:19:50.591Z,16.53
2023-09-26T05:22:17.315Z,16.52
2023-09-26T05:24:44.148Z,16.55
2023-09-26T05:27:10.764Z,16.56
2023-09-26T05:29:37.383Z,16.53
2023-09-26T05:32:04.167Z,16.60
2023-09-26T05:34:30.839Z,16.58
2023-09-26T05:36:57.512Z,16.60
2023-09-26T05:39:24.273Z,16.64
2023-09-26T05:41:50.893Z,16.55
2023-09-26T06:24:18.854Z,17.02
2023-09-26T06:26:45.415Z,17.10
2023-09-26T06:29:12.032Z,17.04
2023-09-26T06:31:40.083Z,17.12
2023-09-26T06:34:06.720Z,17.16
2023-09-26T06:36:33.491Z,17.18
2023-09-26T06:39:00.323Z,17.30
2023-09-26T06:41:26.989Z,17.41
2023-09-26T06:43:53.691Z,17.51
2023-09-26T06:46:20.542Z,17.59
2023-09-26T06:48:47.469Z,17.62
2023-09-26T06:51:14.188Z,17.64
2023-09-26T06:53:42.164Z,17.69
2023-09-26T06:56:09.577Z,17.77
2023-09-26T06:58:37.768Z,17.84
2023-09-26T07:01:04.529Z,17.97
2023-09-26T07:03:31.177Z,18.04
2023-09-26T07:05:57.882Z,18.15
2023-09-26T07:08:24.711Z,18.23
2023-09-26T07:10:51.790Z,18.32
2023-09-26T07:13:44.239Z,18.41
2023-09-26T07:16:06.708Z,18.51
2023-09-26T07:18:35.007Z,18.63
2023-09-26T07:21:02.029Z,18.72
2023-09-26T07:23:28.567Z,18.78
2023-09-26T07:26:16.133Z,18.83
2023-09-26T07:28:44.595Z,18.92
2023-09-26T07:31:16.974Z,19.11
2023-09-26T07:33:45.987Z,19.18
2023-09-26T07:36:12.831Z,19.30
2023-09-26T07:38:39.404Z,19.40
2023-09-26T07:41:06.018Z,19.34
2023-09-26T07:43:32.955Z,19.51
2023-09-26T07:46:07.066Z,19.61
2023-09-26T07:48:34.540Z,19.67
2023-09-26T07:51:02.093Z,19.73
2023-09-26T07:53:28.749Z,19.78
2023-09-26T07:55:58.791Z,19.65
2023-09-26T07:58:26.513Z,19.88
2023-09-26T08:00:57.675Z,19.92
2023-09-26T08:03:24.255Z,20.06
2023-09-26T08:05:50.833Z,20.08
2023-09-26T08:08:17.406Z,20.09
2023-09-26T08:10:44.192Z,20.19
2023-09-26T08:13:10.919Z,20.10
2023-09-26T08:15:37.521Z,20.31
2023-09-26T08:18:04.635Z,20.39
2023-09-26T08:20:31.614Z,20.48
2023-09-26T08:22:58.408Z,20.52
2023-09-26T08:25:27.135Z,20.47
2023-09-26T08:27:53.955Z,20.37
2023-09-26T08:30:20.973Z,20.48
2023-09-26T08:32:49.511Z,20.40
2023-09-26T08:35:20.779Z,20.50
2023-09-26T08:37:54.614Z,20.50
2023-09-26T08:40:24.569Z,20.64
2023-09-26T08:42:55.000Z,20.76
2023-09-26T08:45:23.079Z,20.66
2023-09-26T08:47:49.869Z,20.55
2023-09-26T08:50:16.595Z,20.71
2023-09-26T08:52:43.330Z,20.49
2023-09-26T08:55:10.442Z,20.70
2023-09-26T08:57:38.267Z,20.71
2023-09-26T09:00:10.209Z,20.66
2023-09-26T09:02:37.171Z,20.78
2023-09-26T09:05:04.041Z,20.76
2023-09-26T09:07:31.046Z,20.89
2023-09-26T09:10:06.660Z,20.68
2023-09-26T09:12:34.345Z,21.00
2023-09-26T09:15:01.081Z,21.01
2023-09-26T09:17:39.826Z,20.96
2023-09-26T09:20:07.024Z,21.17
2023-09-26T09:22:33.615Z,21.16
2023-09-26T09:25:00.272Z,21.04
2023-09-26T09:27:46.295Z,21.22
2023-09-26T09:30:14.319Z,21.21
2023-09-26T09:32:42.468Z,21.19
2023-09-26T09:35:15.552Z,21.17
2023-09-26T09:37:43.822Z,20.87
2023-09-26T09:40:11.109Z,20.89
2023-09-26T09:42:37.869Z,20.86
2023-09-26T09:45:04.871Z,20.97
2023-09-26T09:47:37.664Z,20.92
2023-09-26T09:50:06.441Z,20.74
2023-09-26T09:52:35.093Z,20.86
2023-09-26T09:55:08.203Z,20.88
2023-09-26T09:57:42.729Z,21.17
2023-09-26T10:00:09.615Z,21.07
2023-09-26T10:02:44.917Z,21.14
2023-09-26T10:05:24.386Z,21.27
2023-09-26T10:07:54.112Z,21.14
2023-09-26T10:10:22.925Z,21.29
2023-09-26T10:13:19.539Z,21.48
2023-09-26T10:16:03.390Z,21.64
2023-09-26T10:18:30.336Z,21.59
2023-09-26T10:20:59.157Z,21.57
2023-09-26T10:23:25.836Z,21.26
2023-09-26T10:25:52.400Z,21.27
2023-09-26T10:28:20.526Z,21.56
2023-09-26T10:30:55.618Z,21.57
2023-09-26T10:36:15.593Z,21.76
2023-09-26T10:38:42.688Z,21.86
2023-09-26T10:43:47.172Z,22.05
2023-09-26T10:46:25.987Z,21.80
2023-09-26T10:48:52.832Z,21.76
2023-09-26T10:51:19.588Z,21.78
2023-09-26T10:53:46.161Z,21.60
2023-09-26T10:56:13.619Z,21.87
2023-09-26T10:58:42.713Z,21.63
2023-09-26T11:01:09.621Z,21.82
2023-09-26T11:03:36.281Z,21.87
2023-09-26T11:06:03.995Z,21.76
2023-09-26T11:08:32.197Z,21.79
2023-09-26T11:10:59.012Z,21.93
2023-09-26T11:16:13.082Z,22.01
2023-09-26T11:18:39.883Z,22.16
2023-09-26T11:21:26.278Z,22.35
2023-09-26T11:23:53.037Z,22.17
2023-09-26T11:26:19.598Z,22.26
2023-09-26T11:28:46.267Z,22.29
2023-09-26T11:31:14.138Z,22.27
2023-09-26T11:33:40.849Z,22.02
2023-09-26T11:36:07.828Z,22.39
2023-09-26T11:38:46.346Z,22.49
2023-09-26T11:41:13.487Z,22.39
2023-09-26T11:43:42.182Z,22.18
2023-09-26T11:46:09.159Z,22.43
2023-09-26T11:48:35.979Z,22.36
2023-09-26T11:51:02.628Z,22.25
2023-09-26T11:53:29.329Z,22.27
2023-09-26T11:55:56.006Z,22.13
2023-09-26T11:58:22.715Z,22.21
2023-09-26T12:00:49.444Z,22.40
2023-09-26T12:03:16.317Z,22.38
2023-09-26T12:05:43.330Z,21.88
2023-09-26T12:08:10.083Z,22.38
2023-09-26T12:10:38.428Z,22.60
2023-09-26T12:13:06.509Z,22.84
2023-09-26T12:15:33.611Z,22.91
2023-09-26T12:18:02.077Z,23.06
2023-09-26T12:20:28.918Z,23.10
2023-09-26T12:22:57.466Z,23.02
2023-09-26T12:25:25.677Z,23.21
2023-09-26T12:27:53.268Z,23.26
2023-09-26T12:30:21.330Z,23.10
2023-09-26T12:32:49.419Z,23.39
2023-09-26T12:35:16.196Z,23.66
2023-09-26T12:37:44.711Z,23.66
2023-09-26T12:40:13.298Z,23.74
2023-09-26T12:42:41.119Z,23.66
2023-09-26T12:45:08.851Z,23.93
2023-09-26T12:47:35.766Z,24.28
2023-09-26T12:50:02.504Z,24.29
2023-09-26T12:52:29.446Z,24.49
2023-09-26T12:54:56.242Z,24.60
2023-09-26T12:57:22.985Z,24.94
2023-09-26T12:59:54.371Z,24.95
2023-09-26T13:02:21.958Z,25.05
2023-09-26T13:04:48.853Z,25.13
2023-09-26T13:07:15.524Z,25.37
2023-09-26T13:09:42.230Z,25.28
2023-09-26T13:12:09.037Z,25.31
2023-09-26T13:14:35.799Z,25.47
2023-09-26T13:17:02.923Z,25.59
2023-09-26T13:19:30.405Z,25.72
2023-09-26T13:21:57.109Z,25.70
2023-09-26T13:24:23.908Z,26.13
2023-09-26T13:26:50.653Z,26.23
2023-09-26T13:29:18.512Z,26.41
2023-09-26T13:31:45.442Z,26.33
2023-09-26T13:34:12.163Z,26.45
2023-09-26T13:36:38.940Z,26.69
2023-09-26T13:39:06.254Z,26.77
2023-09-26T13:41:33.012Z,26.72
2023-09-26T13:43:59.742Z,26.93
2023-09-26T13:46:26.644Z,26.77
2023-09-26T13:48:53.446Z,26.68
2023-09-26T13:51:20.225Z,27.29
2023-09-26T13:53:46.859Z,27.67
2023-09-26T13:56:13.545Z,27.84
2023-09-26T13:58:40.409Z,28.04
2023-09-26T14:01:07.229Z,28.08
2023-09-26T14:03:33.983Z,28.22
2023-09-26T14:06:01.826Z,28.64
2023-09-26T14:08:28.600Z,28.84
2023-09-26T14:10:55.307Z,28.85
2023-09-26T14:13:25.404Z,29.16
2023-09-26T14:15:53.115Z,29.38
2023-09-26T14:18:21.326Z,29.90
2023-09-26T14:20:50.955Z,30.36
2023-09-26T14:23:27.429Z,30.79
2023-09-26T14:25:55.395Z,31.00
2023-09-26T14:28:22.162Z,31.57
2023-09-26T14:30:48.909Z,31.70
2023-09-26T14:33:17.409Z,32.06
2023-09-26T14:35:45.075Z,32.49
2023-09-26T14:38:12.059Z,32.77
2023-09-26T14:40:39.236Z,33.09
2023-09-26T14:43:06.437Z,33.05
2023-09-26T14:45:39.613Z,33.30
2023-09-26T14:48:15.399Z,33.55
2023-09-26T14:50:42.245Z,33.68
2023-09-26T14:53:09.021Z,33.83
2023-09-26T14:55:35.791Z,33.94
2023-09-26T14:58:02.517Z,33.98
2023-09-26T15:00:29.108Z,33.98
2023-09-26T15:02:55.935Z,34.01
2023-09-26T15:05:22.700Z,34.09
2023-09-26T15:07:49.475Z,34.01
2023-09-26T15:10:16.164Z,33.98
2023-09-26T15:12:42.810Z,34.01
2023-09-26T15:15:09.804Z,34.04
2023-09-26T15:17:36.519Z,33.99
2023-09-26T15:20:03.321Z,34.01
2023-09-26T15:22:30.159Z,34.12
2023-09-26T15:24:56.904Z,34.15
2023-09-26T15:27:23.625Z,33.97
2023-09-26T15:29:50.374Z,34.02
2023-09-26T15:32:17.155Z,34.01
2023-09-26T15:34:45.536Z,33.97
2023-09-26T15:37:12.228Z,34.08
2023-09-26T15:39:39.152Z,33.99
2023-09-26T15:42:16.989Z,33.88
2023-09-26T15:44:43.954Z,33.65
2023-09-26T15:47:10.736Z,33.41
2023-09-26T15:49:49.279Z,33.27
2023-09-26T15:52:18.104Z,33.02
2023-09-26T15:54:44.971Z,32.85
2023-09-26T15:57:12.144Z,32.78
2023-09-26T15:59:38.991Z,32.74
2023-09-26T16:02:06.518Z,32.54
2023-09-26T16:04:34.987Z,32.25
2023-09-26T16:07:01.945Z,31.94
2023-09-26T16:09:28.556Z,31.65
2023-09-26T16:11:55.297Z,31.50
2023-09-26T16:14:22.105Z,31.38
2023-09-26T16:16:48.940Z,31.19
2023-09-26T16:19:17.103Z,30.96
2023-09-26T16:21:45.305Z,30.59
2023-09-26T16:24:12.120Z,30.28
2023-09-26T16:26:39.190Z,29.96
2023-09-26T16:29:06.301Z,29.72
2023-09-26T16:31:33.744Z,29.48
2023-09-26T16:34:00.755Z,29.15
2023-09-26T16:36:27.702Z,29.10
2023-09-26T16:38:56.083Z,28.97
2023-09-26T16:41:22.719Z,28.77
2023-09-26T16:43:49.593Z,28.60
2023-09-26T16:46:16.371Z,28.43
2023-09-26T16:48:43.329Z,28.21
2023-09-26T16:51:10.223Z,28.06
2023-09-26T16:53:39.914Z,27.76
2023-09-26T16:56:07.282Z,27.64
2023-09-26T16:58:34.440Z,27.44
2023-09-26T17:01:12.936Z,27.18
2023-09-26T17:03:41.975Z,26.90
2023-09-26T17:06:11.391Z,26.60
2023-09-26T17:08:38.747Z,26.32
2023-09-26T17:11:06.985Z,26.13
2023-09-26T17:13:35.662Z,25.91
2023-09-26T17:16:02.713Z,25.75
2023-09-26T17:18:29.870Z,25.56
2023-09-26T17:20:56.671Z,25.28
2023-09-26T17:23:23.383Z,25.15
2023-09-26T17:25:50.448Z,25.03
2023-09-26T17:28:17.787Z,24.89
2023-09-26T17:33:25.947Z,24.59
2023-09-26T17:35:53.267Z,24.48
2023-09-26T17:38:20.247Z,24.35
2023-09-26T17:40:47.078Z,24.23
2023-09-26T17:43:13.774Z,24.17
2023-09-26T17:45:41.143Z,24.04
2023-09-26T17:48:08.267Z,23.95
2023-09-26T17:50:35.174Z,23.83
2023-09-26T17:53:02.007Z,23.74
2023-09-26T17:55:29.013Z,23.57
2023-09-26T17:57:55.778Z,23.45
2023-09-26T18:00:59.908Z,23.40
2023-09-26T18:03:23.483Z,23.29
2023-09-26T18:05:50.873Z,23.21
2023-09-26T18:08:17.720Z,23.17
2023-09-26T18:10:45.534Z,23.14
2023-09-26T18:13:12.488Z,23.00
2023-09-26T18:15:39.254Z,22.95
2023-09-26T18:18:06.272Z,22.88
2023-09-26T18:20:33.479Z,22.79
2023-09-26T18:23:00.481Z,22.72
2023-09-26T18:25:27.550Z,22.68
2023-09-26T18:27:54.528Z,22.60
2023-09-26T18:30:21.276Z,22.57
2023-09-26T18:32:48.362Z,22.49
2023-09-26T18:35:15.431Z,22.44
2023-09-26T18:37:42.430Z,22.34
2023-09-26T18:40:10.415Z,22.24
2023-09-26T18:42:37.258Z,22.10
2023-09-26T18:45:04.824Z,22.15
2023-09-26T18:47:31.928Z,22.15
2023-09-26T18:49:58.727Z,22.13
2023-09-26T18:52:26.664Z,22.07
2023-09-26T18:54:53.527Z,21.96
2023-09-26T18:57:20.268Z,21.91
2023-09-26T18:59:47.021Z,21.37
2023-09-26T19:02:14.042Z,21.49
2023-09-26T19:04:41.160Z,21.55
2023-09-26T19:07:07.919Z,21.58
2023-09-26T19:09:35.276Z,21.60
2023-09-26T19:12:02.103Z,21.67
2023-09-26T19:14:28.882Z,21.70
2023-09-26T19:16:56.221Z,21.65
2023-09-26T19:19:23.238Z,21.61
2023-09-26T19:21:50.496Z,21.58
2023-09-26T19:24:20.374Z,21.60
2023-09-26T19:26:47.422Z,21.55
2023-09-26T19:29:14.288Z,21.59
2023-09-26T19:31:41.272Z,21.59
2023-09-26T19:34:08.376Z,21.55
2023-09-26T19:36:35.351Z,21.53
2023-09-26T19:39:02.641Z,21.48
2023-09-26T19:41:29.752Z,21.41
2023-09-26T19:43:56.722Z,21.22
2023-09-26T19:46:23.795Z,21.29
2023-09-26T19:48:54.395Z,21.26
2023-09-26T19:51:21.420Z,21.27
2023-09-26T19:53:48.333Z,21.19
2023-09-26T19:56:15.278Z,21.09
2023-09-26T19:58:42.326Z,21.06
2023-09-26T20:01:09.252Z,21.04
2023-09-26T20:03:36.529Z,21.11
2023-09-26T20:06:03.578Z,21.06
2023-09-26T20:08:30.499Z,20.98
2023-09-26T20:10:57.497Z,20.99
2023-09-26T20:13:24.259Z,20.99
2023-09-26T20:15:51.128Z,20.94
2023-09-26T20:18:17.814Z,20.93
2023-09-26T20:20:44.906Z,20.89
2023-09-26T20:23:11.848Z,20.91
2023-09-26T20:25:38.572Z,20.93
2023-09-26T20:28:06.412Z,20.83
2023-09-26T20:30:34.432Z,20.74
2023-09-26T20:33:13.329Z,20.75
2023-09-26T20:35:52.931Z,20.75
2023-09-26T20:38:22.337Z,20.72
2023-09-26T20:40:49.328Z,20.74
2023-09-26T20:43:17.958Z,20.70
2023-09-26T20:45:46.096Z,20.64
2023-09-26T20:48:16.053Z,20.62
2023-09-26T20:50:42.856Z,20.58
2023-09-26T20:53:09.743Z,20.56
2023-09-26T20:55:39.691Z,20.61
2023-09-26T20:58:09.467Z,20.57
2023-09-26T21:00:37.186Z,20.59
2023-09-26T21:03:04.736Z,20.58
2023-09-26T21:05:36.520Z,20.58
2023-09-26T21:08:03.459Z,20.51
2023-09-26T21:10:30.506Z,20.49
2023-09-26T21:12:57.629Z,20.45
2023-09-26T21:15:25.390Z,20.49
2023-09-26T21:17:52.658Z,20.49
2023-09-26T21:20:20.345Z,20.45
2023-09-26T21:22:47.309Z,20.43
2023-09-26T21:25:14.246Z,20.51
2023-09-26T21:27:41.635Z,20.39
2023-09-26T21:30:09.325Z,20.42
2023-09-26T21:32:36.499Z,20.38
2023-09-26T21:35:03.703Z,20.27
2023-09-26T21:37:30.454Z,20.27
2023-09-26T21:39:57.574Z,20.30
2023-09-26T21:42:24.337Z,20.31
2023-09-26T21:44:51.331Z,20.23
2023-09-26T21:47:18.237Z,20.17
2023-09-26T21:49:45.130Z,20.15
2023-09-26T21:52:11.941Z,20.06
2023-09-26T21:54:38.670Z,20.09
2023-09-26T21:57:05.597Z,20.08
2023-09-26T21:59:32.545Z,20.08
2023-09-26T22:01:59.508Z,20.05
2023-09-26T22:04:28.755Z,20.09
2023-09-26T22:06:55.634Z,20.07
2023-09-26T22:09:22.440Z,20.05
2023-09-26T22:11:49.368Z,20.05
2023-09-26T22:14:16.239Z,19.89
2023-09-26T22:16:42.918Z,19.91
2023-09-26T22:19:09.761Z,19.90
2023-09-26T22:21:36.786Z,19.97
2023-09-26T22:24:03.904Z,19.96
2023-09-26T22:26:30.711Z,20.01
2023-09-26T22:28:57.502Z,19.88
2023-09-26T22:31:24.423Z,19.96
2023-09-26T22:33:51.888Z,20.02
2023-09-26T22:36:19.905Z,19.97
2023-09-26T22:38:46.830Z,19.94
2023-09-26T22:41:13.613Z,19.99
2023-09-26T22:43:40.423Z,19.99
2023-09-26T22:46:07.103Z,19.94
2023-09-26T22:48:33.940Z,19.94
2023-09-26T22:51:00.859Z,19.90
2023-09-26T22:53:27.680Z,19.80
2023-09-26T22:55:54.444Z,19.80
2023-09-26T22:58:21.305Z,19.84
2023-09-26T23:00:48.246Z,19.82
2023-09-26T23:03:15.330Z,19.80
2023-09-26T23:05:42.138Z,19.73
2023-09-26T23:08:09.121Z,19.51
2023-09-26T23:10:35.994Z,19.59
2023-09-26T23:13:02.943Z,19.64
2023-09-26T23:15:29.791Z,19.68
2023-09-26T23:17:56.746Z,19.61
2023-09-26T23:20:23.523Z,19.66
2023-09-26T23:22:51.772Z,19.66
2023-09-26T23:25:18.787Z,19.63
2023-09-26T23:27:45.526Z,19.56
2023-09-26T23:30:13.567Z,19.54
2023-09-26T23:32:42.528Z,19.51
2023-09-26T23:35:10.123Z,19.50
2023-09-26T23:37:37.058Z,19.45
2023-09-26T23:40:04.049Z,19.47
2023-09-26T23:42:30.739Z,19.50
2023-09-26T23:44:57.447Z,19.49
2023-09-26T23:47:24.228Z,19.42
2023-09-26T23:49:51.066Z,19.46
2023-09-26T23:52:17.845Z,19.44
2023-09-26T23:54:44.605Z,19.49
2023-09-26T23:57:11.330Z,19.40
2023-09-26T23:59:38.085Z,19.38
